Aviation Digital Data Service (ADDS)

Output produced by METARs form (1008 UTC 25 October 2014)
found at http://aviationweather.gov/adds/metars/
 
KPWM 250925Z 2509/2606 30005KT P6SM OVC050 
     FM251900 20007KT P6SM SCT250